sensor_id;sensor_type;location;lat;lon;timestamp;P1;durP1;ratioP1;P2;durP2;ratioP2
2760;SDS011;15420;48.636;9.798;2022-08-02T00:01:56;1.27;;;1.17;;
2760;SDS011;15420;48.636;9.798;2022-08-02T00:04:22;1.20;;;1.10;;
2760;SDS011;15420;48.636;9.798;2022-08-02T00:06:48;1.73;;;1.63;;
2760;SDS011;15420;48.636;9.798;2022-08-02T00:09:17;2.47;;;1.67;;
2760;SDS011;15420;48.636;9.798;2022-08-02T00:11:43;3.40;;;1.40;;
2760;SDS011;15420;48.636;9.798;2022-08-02T00:14:12;3.97;;;1.57;;
2760;SDS011;15420;48.636;9.798;2022-08-02T00:16:38;1.53;;;1.30;;
2760;SDS011;15420;48.636;9.798;2022-08-02T00:19:04;1.60;;;1.50;;
2760;SDS011;15420;48.636;9.798;2022-08-02T00:21:33;1.53;;;1.30;;
2760;SDS011;15420;48.636;9.798;2022-08-02T00:24:04;1.53;;;1.40;;
2760;SDS011;15420;48.636;9.798;2022-08-02T00:26:35;1.80;;;1.70;;
2760;SDS011;15420;48.636;9.798;2022-08-02T00:29:03;2.43;;;1.40;;
2760;SDS011;15420;48.636;9.798;2022-08-02T00:31:30;1.40;;;1.30;;
2760;SDS011;15420;48.636;9.798;2022-08-02T00:34:01;1.60;;;1.50;;
2760;SDS011;15420;48.636;9.798;2022-08-02T00:36:29;1.60;;;1.50;;
2760;SDS011;15420;48.636;9.798;2022-08-02T00:38:58;2.50;;;1.40;;
2760;SDS011;15420;48.636;9.798;2022-08-02T00:41:26;1.90;;;1.47;;
2760;SDS011;15420;48.636;9.798;2022-08-02T00:43:53;1.60;;;1.50;;
2760;SDS011;15420;48.636;9.798;2022-08-02T00:46:21;1.57;;;1.30;;
2760;SDS011;15420;48.636;9.798;2022-08-02T00:48:47;1.40;;;1.30;;
2760;SDS011;15420;48.636;9.798;2022-08-02T00:51:13;1.53;;;1.43;;
2760;SDS011;15420;48.636;9.798;2022-08-02T00:53:40;1.40;;;1.30;;
2760;SDS011;15420;48.636;9.798;2022-08-02T00:56:11;1.53;;;1.40;;
2760;SDS011;15420;48.636;9.798;2022-08-02T00:58:37;1.40;;;1.30;;
2760;SDS011;15420;48.636;9.798;2022-08-02T01:01:04;2.60;;;1.67;;
2760;SDS011;15420;48.636;9.798;2022-08-02T01:03:30;1.60;;;1.50;;
2760;SDS011;15420;48.636;9.798;2022-08-02T01:05:56;1.30;;;1.13;;
2760;SDS011;15420;48.636;9.798;2022-08-02T01:08:22;1.83;;;1.50;;
2760;SDS011;15420;48.636;9.798;2022-08-02T01:10:50;1.67;;;1.57;;
2760;SDS011;15420;48.636;9.798;2022-08-02T01:13:16;1.77;;;1.43;;
2760;SDS011;15420;48.636;9.798;2022-08-02T01:15:46;1.77;;;1.57;;
2760;SDS011;15420;48.636;9.798;2022-08-02T01:18:23;1.43;;;1.33;;
2760;SDS011;15420;48.636;9.798;2022-08-02T01:30:24;1.63;;;1.53;;
2760;SDS011;15420;48.636;9.798;2022-08-02T01:32:52;1.70;;;1.60;;
2760;SDS011;15420;48.636;9.798;2022-08-02T01:35:26;1.70;;;1.60;;
2760;SDS011;15420;48.636;9.798;2022-08-02T01:38:15;4.50;;;1.90;;
2760;SDS011;15420;48.636;9.798;2022-08-02T01:40:47;1.93;;;1.83;;
2760;SDS011;15420;48.636;9.798;2022-08-02T01:43:16;1.80;;;1.70;;
2760;SDS011;15420;48.636;9.798;2022-08-02T01:45:46;1.37;;;1.27;;
2760;SDS011;15420;48.636;9.798;2022-08-02T01:48:15;1.77;;;1.53;;
2760;SDS011;15420;48.636;9.798;2022-08-02T01:50:42;1.70;;;1.50;;
2760;SDS011;15420;48.636;9.798;2022-08-02T01:53:10;2.87;;;1.50;;
2760;SDS011;15420;48.636;9.798;2022-08-02T01:55:46;2.10;;;1.53;;
2760;SDS011;15420;48.636;9.798;2022-08-02T01:58:18;1.73;;;1.60;;
2760;SDS011;15420;48.636;9.798;2022-08-02T02:00:48;1.50;;;1.40;;
2760;SDS011;15420;48.636;9.798;2022-08-02T02:03:21;3.33;;;1.70;;
2760;SDS011;15420;48.636;9.798;2022-08-02T02:05:56;1.63;;;1.53;;
2760;SDS011;15420;48.636;9.798;2022-08-02T02:08:25;1.80;;;1.57;;
2760;SDS011;15420;48.636;9.798;2022-08-02T02:10:58;1.60;;;1.50;;
2760;SDS011;15420;48.636;9.798;2022-08-02T02:13:25;3.67;;;1.87;;
2760;SDS011;15420;48.636;9.798;2022-08-02T02:15:56;2.60;;;1.80;;
2760;SDS011;15420;48.636;9.798;2022-08-02T02:18:27;2.00;;;1.60;;
2760;SDS011;15420;48.636;9.798;2022-08-02T02:20:57;1.93;;;1.83;;
2760;SDS011;15420;48.636;9.798;2022-08-02T02:23:23;1.67;;;1.57;;
2760;SDS011;15420;48.636;9.798;2022-08-02T02:25:52;2.20;;;1.60;;
2760;SDS011;15420;48.636;9.798;2022-08-02T02:28:23;2.33;;;1.67;;
2760;SDS011;15420;48.636;9.798;2022-08-02T02:30:57;1.87;;;1.77;;
2760;SDS011;15420;48.636;9.798;2022-08-02T02:33:56;2.70;;;2.50;;
2760;SDS011;15420;48.636;9.798;2022-08-02T02:36:29;3.33;;;1.70;;
2760;SDS011;15420;48.636;9.798;2022-08-02T02:39:00;2.00;;;1.90;;
2760;SDS011;15420;48.636;9.798;2022-08-02T02:41:29;1.80;;;1.70;;
2760;SDS011;15420;48.636;9.798;2022-08-02T02:43:59;2.27;;;1.80;;
2760;SDS011;15420;48.636;9.798;2022-08-02T02:46:28;1.90;;;1.80;;
2760;SDS011;15420;48.636;9.798;2022-08-02T02:48:58;2.07;;;1.90;;
2760;SDS011;15420;48.636;9.798;2022-08-02T02:51:28;3.77;;;2.43;;
2760;SDS011;15420;48.636;9.798;2022-08-02T02:53:57;1.93;;;1.83;;
2760;SDS011;15420;48.636;9.798;2022-08-02T02:56:24;1.90;;;1.80;;
2760;SDS011;15420;48.636;9.798;2022-08-02T02:58:52;1.97;;;1.87;;
2760;SDS011;15420;48.636;9.798;2022-08-02T03:01:19;2.83;;;1.93;;
2760;SDS011;15420;48.636;9.798;2022-08-02T03:03:52;1.43;;;1.33;;
2760;SDS011;15420;48.636;9.798;2022-08-02T03:06:20;1.90;;;1.80;;
2760;SDS011;15420;48.636;9.798;2022-08-02T03:08:46;2.23;;;1.73;;
2760;SDS011;15420;48.636;9.798;2022-08-02T03:11:15;1.93;;;1.83;;
2760;SDS011;15420;48.636;9.798;2022-08-02T03:13:44;2.63;;;2.43;;
2760;SDS011;15420;48.636;9.798;2022-08-02T03:16:11;2.63;;;2.00;;
2760;SDS011;15420;48.636;9.798;2022-08-02T03:18:38;2.07;;;1.90;;
2760;SDS011;15420;48.636;9.798;2022-08-02T03:21:08;1.67;;;1.57;;
2760;SDS011;15420;48.636;9.798;2022-08-02T03:23:36;2.30;;;2.10;;
2760;SDS011;15420;48.636;9.798;2022-08-02T03:26:06;2.07;;;1.90;;
2760;SDS011;15420;48.636;9.798;2022-08-02T03:28:33;2.20;;;1.90;;
2760;SDS011;15420;48.636;9.798;2022-08-02T03:30:59;2.87;;;1.93;;
2760;SDS011;15420;48.636;9.798;2022-08-02T03:33:28;2.30;;;2.10;;
2760;SDS011;15420;48.636;9.798;2022-08-02T03:36:00;2.00;;;1.90;;
2760;SDS011;15420;48.636;9.798;2022-08-02T03:38:34;2.27;;;2.17;;
2760;SDS011;15420;48.636;9.798;2022-08-02T03:41:04;3.57;;;2.00;;
2760;SDS011;15420;48.636;9.798;2022-08-02T03:43:31;2.50;;;2.23;;
2760;SDS011;15420;48.636;9.798;2022-08-02T03:46:00;3.73;;;2.43;;
2760;SDS011;15420;48.636;9.798;2022-08-02T03:48:28;3.17;;;2.87;;
2760;SDS011;15420;48.636;9.798;2022-08-02T03:50:59;3.20;;;2.93;;
2760;SDS011;15420;48.636;9.798;2022-08-02T03:53:25;4.10;;;2.83;;
2760;SDS011;15420;48.636;9.798;2022-08-02T03:55:52;6.00;;;3.20;;
2760;SDS011;15420;48.636;9.798;2022-08-02T03:58:19;4.43;;;4.03;;
2760;SDS011;15420;48.636;9.798;2022-08-02T04:00:46;5.03;;;4.53;;
2760;SDS011;15420;48.636;9.798;2022-08-02T04:03:13;4.50;;;4.10;;
2760;SDS011;15420;48.636;9.798;2022-08-02T04:05:40;4.47;;;4.07;;
2760;SDS011;15420;48.636;9.798;2022-08-02T04:08:09;5.37;;;4.87;;
2760;SDS011;15420;48.636;9.798;2022-08-02T04:10:37;5.43;;;4.57;;
2760;SDS011;15420;48.636;9.798;2022-08-02T04:13:36;6.53;;;5.33;;
2760;SDS011;15420;48.636;9.798;2022-08-02T04:18:44;4.13;;;3.73;;
2760;SDS011;15420;48.636;9.798;2022-08-02T04:21:22;3.70;;;3.40;;
2760;SDS011;15420;48.636;9.798;2022-08-02T04:23:50;5.80;;;3.90;;
2760;SDS011;15420;48.636;9.798;2022-08-02T04:26:20;4.97;;;4.20;;
2760;SDS011;15420;48.636;9.798;2022-08-02T04:28:47;4.77;;;4.37;;
2760;SDS011;15420;48.636;9.798;2022-08-02T04:31:16;4.40;;;4.00;;
2760;SDS011;15420;48.636;9.798;2022-08-02T04:33:45;6.33;;;3.50;;
2760;SDS011;15420;48.636;9.798;2022-08-02T04:36:13;4.00;;;3.70;;
2760;SDS011;15420;48.636;9.798;2022-08-02T04:38:45;3.37;;;3.07;;
2760;SDS011;15420;48.636;9.798;2022-08-02T04:41:15;6.23;;;3.23;;
2760;SDS011;15420;48.636;9.798;2022-08-02T04:43:41;2.93;;;2.73;;
2760;SDS011;15420;48.636;9.798;2022-08-02T04:46:10;3.23;;;2.93;;
2760;SDS011;15420;48.636;9.798;2022-08-02T04:48:36;3.50;;;3.20;;
2760;SDS011;15420;48.636;9.798;2022-08-02T04:51:03;3.80;;;3.30;;
2760;SDS011;15420;48.636;9.798;2022-08-02T04:53:29;4.00;;;3.60;;
2760;SDS011;15420;48.636;9.798;2022-08-02T04:56:00;3.70;;;3.37;;
2760;SDS011;15420;48.636;9.798;2022-08-02T04:58:26;7.93;;;7.10;;
2760;SDS011;15420;48.636;9.798;2022-08-02T05:00:52;7.93;;;5.93;;
2760;SDS011;15420;48.636;9.798;2022-08-02T05:03:20;8.87;;;5.90;;
2760;SDS011;15420;48.636;9.798;2022-08-02T05:05:46;6.00;;;4.70;;
2760;SDS011;15420;48.636;9.798;2022-08-02T05:08:15;5.20;;;4.70;;
2760;SDS011;15420;48.636;9.798;2022-08-02T05:10:41;4.80;;;4.40;;
2760;SDS011;15420;48.636;9.798;2022-08-02T05:13:07;6.27;;;5.03;;
2760;SDS011;15420;48.636;9.798;2022-08-02T05:15:34;4.53;;;4.13;;
2760;SDS011;15420;48.636;9.798;2022-08-02T05:18:00;5.17;;;4.70;;
2760;SDS011;15420;48.636;9.798;2022-08-02T05:20:26;4.93;;;4.53;;
2760;SDS011;15420;48.636;9.798;2022-08-02T05:22:52;5.30;;;4.80;;
2760;SDS011;15420;48.636;9.798;2022-08-02T05:25:21;6.47;;;4.47;;
2760;SDS011;15420;48.636;9.798;2022-08-02T05:27:49;5.07;;;4.57;;
2760;SDS011;15420;48.636;9.798;2022-08-02T05:30:16;4.70;;;4.30;;
2760;SDS011;15420;48.636;9.798;2022-08-02T05:32:49;5.50;;;4.87;;
2760;SDS011;15420;48.636;9.798;2022-08-02T05:35:21;4.57;;;4.17;;
2760;SDS011;15420;48.636;9.798;2022-08-02T05:37:49;5.00;;;4.33;;
2760;SDS011;15420;48.636;9.798;2022-08-02T05:40:20;4.93;;;4.50;;
2760;SDS011;15420;48.636;9.798;2022-08-02T05:42:46;4.53;;;4.13;;
2760;SDS011;15420;48.636;9.798;2022-08-02T05:45:15;5.93;;;4.77;;
2760;SDS011;15420;48.636;9.798;2022-08-02T05:47:44;4.60;;;4.20;;
2760;SDS011;15420;48.636;9.798;2022-08-02T05:50:12;6.10;;;4.80;;
2760;SDS011;15420;48.636;9.798;2022-08-02T05:55:15;4.87;;;4.33;;
2760;SDS011;15420;48.636;9.798;2022-08-02T06:00:21;5.53;;;4.27;;
2760;SDS011;15420;48.636;9.798;2022-08-02T06:08:45;5.00;;;4.50;;
2760;SDS011;15420;48.636;9.798;2022-08-02T06:11:18;4.73;;;4.17;;
2760;SDS011;15420;48.636;9.798;2022-08-02T06:13:49;4.60;;;4.07;;
2760;SDS011;15420;48.636;9.798;2022-08-02T06:16:15;4.50;;;4.10;;
2760;SDS011;15420;48.636;9.798;2022-08-02T06:18:45;5.43;;;4.13;;
2760;SDS011;15420;48.636;9.798;2022-08-02T06:21:13;5.30;;;4.80;;
2760;SDS011;15420;48.636;9.798;2022-08-02T06:23:41;4.43;;;4.03;;
2760;SDS011;15420;48.636;9.798;2022-08-02T06:26:08;4.57;;;4.17;;
2760;SDS011;15420;48.636;9.798;2022-08-02T06:28:38;4.83;;;4.37;;
2760;SDS011;15420;48.636;9.798;2022-08-02T06:31:05;4.23;;;3.70;;
2760;SDS011;15420;48.636;9.798;2022-08-02T06:33:33;4.20;;;3.80;;
2760;SDS011;15420;48.636;9.798;2022-08-02T06:36:04;4.10;;;3.80;;
2760;SDS011;15420;48.636;9.798;2022-08-02T06:38:43;4.80;;;4.00;;
2760;SDS011;15420;48.636;9.798;2022-08-02T06:41:19;4.47;;;4.07;;
2760;SDS011;15420;48.636;9.798;2022-08-02T06:43:54;4.67;;;4.27;;
2760;SDS011;15420;48.636;9.798;2022-08-02T06:46:27;5.27;;;3.93;;
2760;SDS011;15420;48.636;9.798;2022-08-02T06:48:56;5.03;;;4.47;;
2760;SDS011;15420;48.636;9.798;2022-08-02T06:51:25;4.90;;;4.37;;
2760;SDS011;15420;48.636;9.798;2022-08-02T06:53:54;4.30;;;3.90;;
2760;SDS011;15420;48.636;9.798;2022-08-02T06:56:22;6.70;;;3.50;;
2760;SDS011;15420;48.636;9.798;2022-08-02T06:58:49;4.30;;;3.90;;
2760;SDS011;15420;48.636;9.798;2022-08-02T07:01:17;4.37;;;3.80;;
2760;SDS011;15420;48.636;9.798;2022-08-02T07:03:46;3.43;;;3.13;;
2760;SDS011;15420;48.636;9.798;2022-08-02T07:06:12;3.73;;;3.43;;
2760;SDS011;15420;48.636;9.798;2022-08-02T07:08:41;3.43;;;3.13;;
2760;SDS011;15420;48.636;9.798;2022-08-02T07:11:07;4.80;;;4.17;;
2760;SDS011;15420;48.636;9.798;2022-08-02T07:13:34;4.10;;;3.80;;
2760;SDS011;15420;48.636;9.798;2022-08-02T07:16:01;4.77;;;3.50;;
2760;SDS011;15420;48.636;9.798;2022-08-02T07:18:28;3.20;;;2.93;;
2760;SDS011;15420;48.636;9.798;2022-08-02T07:20:54;3.30;;;3.07;;
2760;SDS011;15420;48.636;9.798;2022-08-02T07:23:21;4.20;;;3.20;;
2760;SDS011;15420;48.636;9.798;2022-08-02T07:25:47;3.63;;;3.03;;
2760;SDS011;15420;48.636;9.798;2022-08-02T07:28:15;2.97;;;2.67;;
2760;SDS011;15420;48.636;9.798;2022-08-02T07:30:41;3.00;;;2.80;;
2760;SDS011;15420;48.636;9.798;2022-08-02T07:33:08;3.20;;;2.90;;
2760;SDS011;15420;48.636;9.798;2022-08-02T07:35:34;3.53;;;3.07;;
2760;SDS011;15420;48.636;9.798;2022-08-02T07:38:01;5.00;;;3.27;;
2760;SDS011;15420;48.636;9.798;2022-08-02T07:40:27;3.50;;;3.20;;
2760;SDS011;15420;48.636;9.798;2022-08-02T07:42:54;4.60;;;3.70;;
2760;SDS011;15420;48.636;9.798;2022-08-02T07:45:21;3.30;;;3.03;;
2760;SDS011;15420;48.636;9.798;2022-08-02T07:47:48;3.13;;;2.40;;
2760;SDS011;15420;48.636;9.798;2022-08-02T07:50:16;3.60;;;3.30;;
2760;SDS011;15420;48.636;9.798;2022-08-02T07:52:43;3.53;;;3.23;;
2760;SDS011;15420;48.636;9.798;2022-08-02T07:55:11;3.90;;;3.40;;
2760;SDS011;15420;48.636;9.798;2022-08-02T07:57:38;3.13;;;2.90;;
2760;SDS011;15420;48.636;9.798;2022-08-02T08:00:05;4.67;;;3.60;;
2760;SDS011;15420;48.636;9.798;2022-08-02T08:02:33;3.10;;;2.90;;
2760;SDS011;15420;48.636;9.798;2022-08-02T08:05:02;4.50;;;3.40;;
2760;SDS011;15420;48.636;9.798;2022-08-02T08:07:30;3.57;;;3.27;;
2760;SDS011;15420;48.636;9.798;2022-08-02T08:09:59;3.63;;;3.33;;
2760;SDS011;15420;48.636;9.798;2022-08-02T08:12:30;5.67;;;3.97;;
2760;SDS011;15420;48.636;9.798;2022-08-02T08:15:02;4.40;;;3.70;;
2760;SDS011;15420;48.636;9.798;2022-08-02T08:17:28;4.80;;;4.00;;
2760;SDS011;15420;48.636;9.798;2022-08-02T08:19:55;4.63;;;4.20;;
2760;SDS011;15420;48.636;9.798;2022-08-02T08:22:22;4.40;;;3.80;;
2760;SDS011;15420;48.636;9.798;2022-08-02T08:24:53;9.50;;;3.87;;
2760;SDS011;15420;48.636;9.798;2022-08-02T08:27:19;3.70;;;3.40;;
2760;SDS011;15420;48.636;9.798;2022-08-02T08:29:47;5.57;;;4.20;;
2760;SDS011;15420;48.636;9.798;2022-08-02T08:32:15;4.30;;;3.90;;
2760;SDS011;15420;48.636;9.798;2022-08-02T08:34:43;5.17;;;4.47;;
2760;SDS011;15420;48.636;9.798;2022-08-02T08:37:15;4.30;;;3.90;;
2760;SDS011;15420;48.636;9.798;2022-08-02T08:39:41;5.00;;;4.47;;
2760;SDS011;15420;48.636;9.798;2022-08-02T08:42:10;5.00;;;4.57;;
2760;SDS011;15420;48.636;9.798;2022-08-02T08:44:36;8.17;;;4.47;;
2760;SDS011;15420;48.636;9.798;2022-08-02T08:47:04;5.57;;;4.93;;
2760;SDS011;15420;48.636;9.798;2022-08-02T08:49:36;4.60;;;4.20;;
2760;SDS011;15420;48.636;9.798;2022-08-02T08:52:05;4.73;;;4.23;;
2760;SDS011;15420;48.636;9.798;2022-08-02T08:54:35;7.13;;;4.73;;
2760;SDS011;15420;48.636;9.798;2022-08-02T08:57:05;4.70;;;4.07;;
2760;SDS011;15420;48.636;9.798;2022-08-02T08:59:35;4.93;;;4.13;;
2760;SDS011;15420;48.636;9.798;2022-08-02T09:02:01;4.60;;;4.20;;
2760;SDS011;15420;48.636;9.798;2022-08-02T09:04:28;5.10;;;4.60;;
2760;SDS011;15420;48.636;9.798;2022-08-02T09:06:57;4.53;;;4.13;;
2760;SDS011;15420;48.636;9.798;2022-08-02T09:09:25;5.97;;;4.53;;
2760;SDS011;15420;48.636;9.798;2022-08-02T09:11:53;5.73;;;4.17;;
2760;SDS011;15420;48.636;9.798;2022-08-02T09:14:36;4.80;;;4.40;;
2760;SDS011;15420;48.636;9.798;2022-08-02T09:17:09;5.43;;;4.93;;
2760;SDS011;15420;48.636;9.798;2022-08-02T09:19:36;5.00;;;4.37;;
2760;SDS011;15420;48.636;9.798;2022-08-02T09:22:04;4.80;;;4.37;;
2760;SDS011;15420;48.636;9.798;2022-08-02T09:24:43;5.53;;;4.20;;
2760;SDS011;15420;48.636;9.798;2022-08-02T09:27:19;6.07;;;5.57;;
2760;SDS011;15420;48.636;9.798;2022-08-02T09:29:47;4.83;;;4.40;;
2760;SDS011;15420;48.636;9.798;2022-08-02T09:32:16;4.77;;;4.20;;
2760;SDS011;15420;48.636;9.798;2022-08-02T09:34:48;3.83;;;3.53;;
2760;SDS011;15420;48.636;9.798;2022-08-02T09:37:24;4.30;;;3.90;;
2760;SDS011;15420;48.636;9.798;2022-08-02T09:39:53;5.13;;;4.63;;
2760;SDS011;15420;48.636;9.798;2022-08-02T09:42:27;4.53;;;4.00;;
2760;SDS011;15420;48.636;9.798;2022-08-02T09:44:56;4.03;;;3.73;;
2760;SDS011;15420;48.636;9.798;2022-08-02T09:47:24;3.53;;;3.23;;
2760;SDS011;15420;48.636;9.798;2022-08-02T09:49:54;4.53;;;4.00;;
2760;SDS011;15420;48.636;9.798;2022-08-02T09:52:30;4.60;;;4.20;;
2760;SDS011;15420;48.636;9.798;2022-08-02T09:55:02;4.33;;;3.93;;
2760;SDS011;15420;48.636;9.798;2022-08-02T09:57:29;4.47;;;4.07;;
2760;SDS011;15420;48.636;9.798;2022-08-02T10:00:05;4.53;;;4.13;;
2760;SDS011;15420;48.636;9.798;2022-08-02T10:02:37;10.93;;;4.10;;
2760;SDS011;15420;48.636;9.798;2022-08-02T10:05:05;4.73;;;4.33;;
2760;SDS011;15420;48.636;9.798;2022-08-02T10:07:31;4.40;;;4.00;;
2760;SDS011;15420;48.636;9.798;2022-08-02T10:09:58;3.50;;;3.30;;
2760;SDS011;15420;48.636;9.798;2022-08-02T10:12:25;4.37;;;4.00;;
2760;SDS011;15420;48.636;9.798;2022-08-02T10:14:51;3.77;;;3.50;;
2760;SDS011;15420;48.636;9.798;2022-08-02T10:17:18;3.83;;;3.53;;
2760;SDS011;15420;48.636;9.798;2022-08-02T10:19:49;4.23;;;3.93;;
2760;SDS011;15420;48.636;9.798;2022-08-02T10:22:16;3.67;;;3.37;;
2760;SDS011;15420;48.636;9.798;2022-08-02T10:24:43;3.40;;;3.10;;
2760;SDS011;15420;48.636;9.798;2022-08-02T10:27:12;3.20;;;3.00;;
2760;SDS011;15420;48.636;9.798;2022-08-02T10:29:44;3.43;;;3.17;;
2760;SDS011;15420;48.636;9.798;2022-08-02T10:34:54;3.03;;;2.73;;
2760;SDS011;15420;48.636;9.798;2022-08-02T10:37:31;3.03;;;2.83;;
2760;SDS011;15420;48.636;9.798;2022-08-02T10:40:03;3.20;;;2.90;;
2760;SDS011;15420;48.636;9.798;2022-08-02T10:42:56;3.30;;;3.00;;
2760;SDS011;15420;48.636;9.798;2022-08-02T10:45:27;3.77;;;3.07;;
2760;SDS011;15420;48.636;9.798;2022-08-02T10:55:59;2.77;;;2.57;;
2760;SDS011;15420;48.636;9.798;2022-08-02T10:58:28;2.33;;;2.23;;
2760;SDS011;15420;48.636;9.798;2022-08-02T11:01:07;3.20;;;2.93;;
2760;SDS011;15420;48.636;9.798;2022-08-02T11:03:58;3.30;;;3.00;;
2760;SDS011;15420;48.636;9.798;2022-08-02T11:06:27;4.37;;;3.37;;
2760;SDS011;15420;48.636;9.798;2022-08-02T11:09:39;2.20;;;2.10;;
2760;SDS011;15420;48.636;9.798;2022-08-02T11:12:02;3.10;;;2.80;;
2760;SDS011;15420;48.636;9.798;2022-08-02T11:14:30;2.73;;;2.53;;
2760;SDS011;15420;48.636;9.798;2022-08-02T11:17:14;2.80;;;2.60;;
2760;SDS011;15420;48.636;9.798;2022-08-02T11:22:32;2.70;;;2.50;;
2760;SDS011;15420;48.636;9.798;2022-08-02T11:25:44;4.50;;;2.27;;
2760;SDS011;15420;48.636;9.798;2022-08-02T11:27:48;2.43;;;2.33;;
2760;SDS011;15420;48.636;9.798;2022-08-02T11:30:22;2.47;;;2.30;;
2760;SDS011;15420;48.636;9.798;2022-08-02T11:32:49;2.60;;;2.40;;
2760;SDS011;15420;48.636;9.798;2022-08-02T11:35:19;2.33;;;2.23;;
2760;SDS011;15420;48.636;9.798;2022-08-02T11:37:46;2.63;;;2.43;;
2760;SDS011;15420;48.636;9.798;2022-08-02T11:40:15;2.40;;;2.30;;
2760;SDS011;15420;48.636;9.798;2022-08-02T11:42:44;2.47;;;2.30;;
2760;SDS011;15420;48.636;9.798;2022-08-02T11:45:14;3.33;;;2.20;;
2760;SDS011;15420;48.636;9.798;2022-08-02T11:47:49;3.30;;;2.50;;
2760;SDS011;15420;48.636;9.798;2022-08-02T11:50:19;2.87;;;2.67;;
2760;SDS011;15420;48.636;9.798;2022-08-02T11:52:51;3.37;;;2.57;;
2760;SDS011;15420;48.636;9.798;2022-08-02T11:55:17;2.87;;;2.67;;
2760;SDS011;15420;48.636;9.798;2022-08-02T11:57:58;2.27;;;2.17;;
2760;SDS011;15420;48.636;9.798;2022-08-02T12:00:30;2.30;;;2.10;;
2760;SDS011;15420;48.636;9.798;2022-08-02T12:02:56;2.20;;;2.10;;
2760;SDS011;15420;48.636;9.798;2022-08-02T12:05:23;2.23;;;2.13;;
2760;SDS011;15420;48.636;9.798;2022-08-02T12:07:51;2.30;;;2.20;;
2760;SDS011;15420;48.636;9.798;2022-08-02T12:10:21;4.60;;;2.47;;
2760;SDS011;15420;48.636;9.798;2022-08-02T12:18:21;1.73;;;1.63;;
2760;SDS011;15420;48.636;9.798;2022-08-02T12:21:22;2.10;;;1.88;;
2760;SDS011;15420;48.636;9.798;2022-08-02T12:23:49;1.95;;;1.70;;
2760;SDS011;15420;48.636;9.798;2022-08-02T12:26:18;1.90;;;1.80;;
2760;SDS011;15420;48.636;9.798;2022-08-02T12:28:44;1.98;;;1.88;;
2760;SDS011;15420;48.636;9.798;2022-08-02T12:31:11;3.00;;;2.10;;
2760;SDS011;15420;48.636;9.798;2022-08-02T12:33:48;1.92;;;1.75;;
2760;SDS011;15420;48.636;9.798;2022-08-02T12:38:54;2.08;;;1.98;;
2760;SDS011;15420;48.636;9.798;2022-08-02T12:41:20;2.15;;;2.05;;
2760;SDS011;15420;48.636;9.798;2022-08-02T12:43:48;1.77;;;1.67;;
2760;SDS011;15420;48.636;9.798;2022-08-02T12:46:18;2.42;;;1.98;;
2760;SDS011;15420;48.636;9.798;2022-08-02T12:48:45;1.60;;;1.50;;
2760;SDS011;15420;48.636;9.798;2022-08-02T12:53:47;1.70;;;1.60;;
2760;SDS011;15420;48.636;9.798;2022-08-02T12:56:31;2.42;;;1.40;;
2760;SDS011;15420;48.636;9.798;2022-08-02T12:59:00;1.38;;;1.30;;
2760;SDS011;15420;48.636;9.798;2022-08-02T13:01:27;1.60;;;1.50;;
2760;SDS011;15420;48.636;9.798;2022-08-02T13:03:57;1.98;;;1.63;;
2760;SDS011;15420;48.636;9.798;2022-08-02T13:06:24;1.83;;;1.70;;
2760;SDS011;15420;48.636;9.798;2022-08-02T13:08:50;1.35;;;1.25;;
2760;SDS011;15420;48.636;9.798;2022-08-02T13:11:22;1.92;;;1.55;;
2760;SDS011;15420;48.636;9.798;2022-08-02T13:13:49;1.90;;;1.80;;
2760;SDS011;15420;48.636;9.798;2022-08-02T13:16:15;1.85;;;1.65;;
2760;SDS011;15420;48.636;9.798;2022-08-02T13:18:45;1.83;;;1.60;;
2760;SDS011;15420;48.636;9.798;2022-08-02T13:21:11;1.63;;;1.52;;
2760;SDS011;15420;48.636;9.798;2022-08-02T13:23:40;1.70;;;1.60;;
2760;SDS011;15420;48.636;9.798;2022-08-02T13:26:09;1.90;;;1.80;;
2760;SDS011;15420;48.636;9.798;2022-08-02T13:28:35;1.50;;;1.40;;
2760;SDS011;15420;48.636;9.798;2022-08-02T13:31:03;2.35;;;1.48;;
2760;SDS011;15420;48.636;9.798;2022-08-02T13:33:29;1.95;;;1.10;;
2760;SDS011;15420;48.636;9.798;2022-08-02T13:35:55;1.58;;;1.48;;
2760;SDS011;15420;48.636;9.798;2022-08-02T13:38:21;2.58;;;1.40;;
2760;SDS011;15420;48.636;9.798;2022-08-02T13:40:47;1.20;;;1.10;;
2760;SDS011;15420;48.636;9.798;2022-08-02T13:43:32;1.70;;;1.60;;
2760;SDS011;15420;48.636;9.798;2022-08-02T13:46:02;1.90;;;1.58;;
2760;SDS011;15420;48.636;9.798;2022-08-02T13:48:29;2.95;;;1.70;;
2760;SDS011;15420;48.636;9.798;2022-08-02T13:50:57;1.27;;;1.17;;
2760;SDS011;15420;48.636;9.798;2022-08-02T13:53:24;1.50;;;1.40;;
2760;SDS011;15420;48.636;9.798;2022-08-02T13:55:50;1.20;;;1.20;;
2760;SDS011;15420;48.636;9.798;2022-08-02T13:58:18;3.88;;;1.33;;
2760;SDS011;15420;48.636;9.798;2022-08-02T14:00:44;1.40;;;1.30;;
2760;SDS011;15420;48.636;9.798;2022-08-02T14:03:11;1.10;;;1.00;;
2760;SDS011;15420;48.636;9.798;2022-08-02T14:05:40;1.20;;;1.20;;
2760;SDS011;15420;48.636;9.798;2022-08-02T14:08:07;1.40;;;1.30;;
2760;SDS011;15420;48.636;9.798;2022-08-02T14:10:33;1.40;;;1.30;;
2760;SDS011;15420;48.636;9.798;2022-08-02T14:12:59;1.30;;;1.20;;
2760;SDS011;15420;48.636;9.798;2022-08-02T14:15:25;2.05;;;1.05;;
2760;SDS011;15420;48.636;9.798;2022-08-02T14:17:56;1.00;;;0.90;;
2760;SDS011;15420;48.636;9.798;2022-08-02T14:20:23;1.10;;;1.10;;
2760;SDS011;15420;48.636;9.798;2022-08-02T14:22:49;1.30;;;1.20;;
2760;SDS011;15420;48.636;9.798;2022-08-02T14:25:15;1.30;;;1.20;;
2760;SDS011;15420;48.636;9.798;2022-08-02T14:27:41;1.20;;;1.20;;
2760;SDS011;15420;48.636;9.798;2022-08-02T14:30:08;1.63;;;1.38;;
2760;SDS011;15420;48.636;9.798;2022-08-02T14:32:39;1.70;;;1.20;;
2760;SDS011;15420;48.636;9.798;2022-08-02T14:35:07;2.15;;;1.02;;
2760;SDS011;15420;48.636;9.798;2022-08-02T14:37:34;3.72;;;1.40;;
2760;SDS011;15420;48.636;9.798;2022-08-02T14:40:00;1.30;;;1.20;;
2760;SDS011;15420;48.636;9.798;2022-08-02T14:42:26;1.70;;;1.60;;
2760;SDS011;15420;48.636;9.798;2022-08-02T14:44:55;1.38;;;1.27;;
2760;SDS011;15420;48.636;9.798;2022-08-02T14:47:25;1.23;;;1.10;;
2760;SDS011;15420;48.636;9.798;2022-08-02T14:49:54;1.33;;;1.17;;
2760;SDS011;15420;48.636;9.798;2022-08-02T14:52:23;1.83;;;1.13;;
2760;SDS011;15420;48.636;9.798;2022-08-02T14:54:49;1.38;;;1.27;;
2760;SDS011;15420;48.636;9.798;2022-08-02T14:57:18;1.13;;;1.10;;
2760;SDS011;15420;48.636;9.798;2022-08-02T14:59:47;1.00;;;1.00;;
2760;SDS011;15420;48.636;9.798;2022-08-02T15:02:13;1.15;;;1.15;;
2760;SDS011;15420;48.636;9.798;2022-08-02T15:04:39;1.50;;;1.40;;
2760;SDS011;15420;48.636;9.798;2022-08-02T15:07:13;0.90;;;0.90;;
2760;SDS011;15420;48.636;9.798;2022-08-02T15:09:39;1.40;;;1.17;;
2760;SDS011;15420;48.636;9.798;2022-08-02T15:12:06;1.38;;;1.27;;
2760;SDS011;15420;48.636;9.798;2022-08-02T15:14:33;1.30;;;1.20;;
2760;SDS011;15420;48.636;9.798;2022-08-02T15:16:59;1.15;;;1.15;;
2760;SDS011;15420;48.636;9.798;2022-08-02T15:19:26;1.38;;;1.27;;
2760;SDS011;15420;48.636;9.798;2022-08-02T15:21:55;1.70;;;1.60;;
2760;SDS011;15420;48.636;9.798;2022-08-02T15:24:21;1.30;;;1.17;;
2760;SDS011;15420;48.636;9.798;2022-08-02T15:26:48;1.67;;;1.08;;
2760;SDS011;15420;48.636;9.798;2022-08-02T15:29:17;0.90;;;0.90;;
2760;SDS011;15420;48.636;9.798;2022-08-02T15:31:44;1.60;;;1.10;;
2760;SDS011;15420;48.636;9.798;2022-08-02T15:34:11;1.65;;;1.20;;
2760;SDS011;15420;48.636;9.798;2022-08-02T15:36:43;1.08;;;1.08;;
2760;SDS011;15420;48.636;9.798;2022-08-02T15:39:15;1.20;;;0.95;;
2760;SDS011;15420;48.636;9.798;2022-08-02T15:41:41;1.50;;;1.40;;
2760;SDS011;15420;48.636;9.798;2022-08-02T15:44:12;2.80;;;1.08;;
2760;SDS011;15420;48.636;9.798;2022-08-02T15:46:39;1.23;;;1.13;;
2760;SDS011;15420;48.636;9.798;2022-08-02T15:49:05;0.90;;;0.85;;
2760;SDS011;15420;48.636;9.798;2022-08-02T15:51:36;1.20;;;1.10;;
2760;SDS011;15420;48.636;9.798;2022-08-02T15:54:02;0.90;;;0.90;;
2760;SDS011;15420;48.636;9.798;2022-08-02T15:56:34;2.40;;;0.90;;
2760;SDS011;15420;48.636;9.798;2022-08-02T15:59:00;1.40;;;0.90;;
2760;SDS011;15420;48.636;9.798;2022-08-02T16:01:26;2.78;;;1.08;;